Time;durP1;ratioP1;P1;durP2;ratioP2;P2;SDS_P1;SDS_P2;PMS_P1;PMS_P2;Temp;Humidity;BMP_temperature;BMP_pressure;BME280_temperature;BME280_humidity;BME280_pressure;Samples;Min_cycle;Max_cycle;Signal;HPM_P1;HPM_P2
2023/07/23 00:01:32;;;;;;;;;;;15.50;99.90;;;;;;5032481;28;20284;-82
2023/07/23 00:03:58;;;;;;;;;;;15.50;99.90;;;;;;5032842;28;19929;-81
2023/07/23 00:06:24;;;;;;;;;;;15.50;99.90;;;;;;5016576;28;19929;-81
2023/07/23 00:08:49;;;;;;;;;;;15.50;99.90;;;;;;5015711;28;20560;-81
2023/07/23 00:11:15;;;;;;;;;;;15.50;99.90;;;;;;5015123;28;19929;-81
2023/07/23 00:13:41;;;;;;;;;;;15.50;99.90;;;;;;5017339;28;19982;-81
2023/07/23 00:16:06;;;;;;;;;;;15.50;99.90;;;;;;5018872;28;19931;-82
2023/07/23 00:18:32;;;;;;;;;;;15.50;99.90;;;;;;5033233;28;19929;-82
2023/07/23 00:20:57;;;;;;;;;;;15.50;99.90;;;;;;5033100;28;19932;-83
2023/07/23 00:23:23;;;;;;;;;;;15.50;99.90;;;;;;5032924;28;20556;-81
2023/07/23 00:25:49;;;;;;;;;;;15.50;99.90;;;;;;5031954;28;20385;-83
2023/07/23 00:28:14;;;;;;;;;;;15.50;99.90;;;;;;5000149;28;19956;-83
2023/07/23 00:30:43;;;;;;;;;;;15.50;99.90;;;;;;5034304;28;19924;-82
2023/07/23 00:33:09;;;;;;;;;;;15.50;99.90;;;;;;5015043;28;19929;-83
2023/07/23 00:35:35;;;;;;;;;;;15.40;99.90;;;;;;5031766;28;19933;-82
2023/07/23 00:38:06;;;;;;;;;;;15.40;99.90;;;;;;5032962;28;19943;-82
2023/07/23 00:40:32;;;;;;;;;;;15.40;99.90;;;;;;5016434;28;19928;-82
2023/07/23 00:42:57;;;;;;;;;;;15.40;99.90;;;;;;5031819;28;19929;-82
2023/07/23 00:45:24;;;;;;;;;;;15.40;99.90;;;;;;4999731;28;19933;-82
2023/07/23 00:47:49;;;;;;;;;;;15.40;99.90;;;;;;5033389;28;20449;-82
2023/07/23 00:50:15;;;;;;;;;;;15.40;99.90;;;;;;5033750;28;19932;-82
2023/07/23 00:52:41;;;;;;;;;;;15.40;99.90;;;;;;5032174;28;19983;-83
2023/07/23 00:55:07;;;;;;;;;;;15.40;99.90;;;;;;5032573;28;19933;-81
2023/07/23 00:57:33;;;;;;;;;;;15.40;99.90;;;;;;4998802;28;19932;-81
2023/07/23 00:59:59;;;;;;;;;;;15.40;99.90;;;;;;5016149;28;19960;-82
2023/07/23 01:02:26;;;;;;;;;;;15.40;99.90;;;;;;5016212;28;19929;-81
2023/07/23 01:04:52;;;;;;;;;;;15.40;99.90;;;;;;5029893;28;19936;-81
2023/07/23 01:07:19;;;;;;;;;;;15.40;99.90;;;;;;5032416;28;19975;-81
2023/07/23 01:09:46;;;;;;;;;;;15.40;99.90;;;;;;5014756;28;19932;-81
2023/07/23 01:12:13;;;;;;;;;;;15.40;99.90;;;;;;5032954;28;19925;-80
2023/07/23 01:14:38;;;;;;;;;;;15.40;99.90;;;;;;5030769;28;19929;-81
2023/07/23 01:17:04;;;;;;;;;;;15.40;99.90;;;;;;5017881;28;19939;-82
2023/07/23 01:19:30;;;;;;;;;;;15.40;99.90;;;;;;5015590;28;20439;-82
2023/07/23 01:21:59;;;;;;;;;;;15.40;99.90;;;;;;5030633;28;21938;-82
2023/07/23 01:24:24;;;;;;;;;;;15.40;99.90;;;;;;5035206;28;19933;-82
2023/07/23 01:26:50;;;;;;;;;;;15.40;99.90;;;;;;5031373;28;19978;-81
2023/07/23 01:29:15;;;;;;;;;;;15.40;99.90;;;;;;5033614;28;19925;-81
2023/07/23 01:31:41;;;;;;;;;;;15.40;99.90;;;;;;5017627;28;20439;-82
2023/07/23 01:34:07;;;;;;;;;;;15.40;99.90;;;;;;5032714;28;19937;-82
2023/07/23 01:36:33;;;;;;;;;;;15.30;99.90;;;;;;5032002;28;20071;-81
2023/07/23 01:38:58;;;;;;;;;;;15.30;99.90;;;;;;5030243;28;19943;-82
2023/07/23 01:41:25;;;;;;;;;;;15.30;99.90;;;;;;5030068;28;19929;-82
2023/07/23 01:43:51;;;;;;;;;;;15.30;99.90;;;;;;5014586;28;19974;-81
2023/07/23 01:46:17;;;;;;;;;;;15.30;99.90;;;;;;5034719;28;19932;-81
2023/07/23 01:48:42;;;;;;;;;;;15.30;99.90;;;;;;5031426;28;19929;-81
2023/07/23 01:51:10;;;;;;;;;;;15.30;99.90;;;;;;5031528;28;19925;-82
2023/07/23 01:53:35;;;;;;;;;;;15.30;99.90;;;;;;5032167;28;19933;-81
2023/07/23 01:56:01;;;;;;;;;;;15.30;99.90;;;;;;5010439;28;20450;-81
2023/07/23 01:58:26;;;;;;;;;;;15.30;99.90;;;;;;5016117;28;19955;-81
2023/07/23 02:01:00;;;;;;;;;;;15.30;99.90;;;;;;4998894;28;19925;-80
2023/07/23 02:03:26;;;;;;;;;;;15.30;99.90;;;;;;5010642;28;19932;-80
2023/07/23 02:05:59;;;;;;;;;;;15.30;99.90;;;;;;5016297;28;19928;-81
2023/07/23 02:08:24;;;;;;;;;;;15.30;99.90;;;;;;5022866;28;20126;-80
2023/07/23 02:10:50;;;;;;;;;;;15.30;99.90;;;;;;5031334;28;19941;-80
2023/07/23 02:13:16;;;;;;;;;;;15.40;99.90;;;;;;5017096;28;20071;-80
2023/07/23 02:15:41;;;;;;;;;;;15.40;99.90;;;;;;5034756;28;19929;-81
2023/07/23 02:18:07;;;;;;;;;;;15.40;99.90;;;;;;5019288;28;20363;-80
2023/07/23 02:20:33;;;;;;;;;;;15.40;99.90;;;;;;5037149;28;19933;-80
2023/07/23 02:22:58;;;;;;;;;;;15.40;99.90;;;;;;5033448;28;19936;-80
2023/07/23 02:25:24;;;;;;;;;;;15.40;99.90;;;;;;5033549;28;20567;-80
2023/07/23 02:27:50;;;;;;;;;;;15.40;99.90;;;;;;5035403;28;19928;-79
2023/07/23 02:30:15;;;;;;;;;;;15.40;99.90;;;;;;5034764;28;20459;-80
2023/07/23 02:32:41;;;;;;;;;;;15.40;99.90;;;;;;5033540;28;19929;-81
2023/07/23 02:35:07;;;;;;;;;;;15.40;99.90;;;;;;5036728;28;19921;-81
2023/07/23 02:37:33;;;;;;;;;;;15.40;99.90;;;;;;5037214;28;20442;-81
2023/07/23 02:39:58;;;;;;;;;;;15.40;99.90;;;;;;5024302;28;19925;-80
2023/07/23 02:42:24;;;;;;;;;;;15.40;99.90;;;;;;5006259;28;19925;-80
2023/07/23 02:44:50;;;;;;;;;;;15.40;99.90;;;;;;5017137;28;20047;-81
2023/07/23 02:47:16;;;;;;;;;;;15.50;99.90;;;;;;5034186;28;19932;-80
2023/07/23 02:49:41;;;;;;;;;;;15.50;99.90;;;;;;5024139;28;20228;-81
2023/07/23 02:52:07;;;;;;;;;;;15.50;99.90;;;;;;5035886;28;19936;-80
2023/07/23 02:54:33;;;;;;;;;;;15.50;99.90;;;;;;5038736;28;19932;-80
2023/07/23 02:56:58;;;;;;;;;;;15.50;99.90;;;;;;5034811;28;19929;-81
2023/07/23 02:59:24;;;;;;;;;;;15.50;99.90;;;;;;5035813;28;20265;-81
2023/07/23 03:01:50;;;;;;;;;;;15.50;99.90;;;;;;5035823;28;19929;-81
2023/07/23 03:04:15;;;;;;;;;;;15.50;99.90;;;;;;5017379;28;19929;-80
2023/07/23 03:06:41;;;;;;;;;;;15.50;99.90;;;;;;5035435;28;20113;-81
2023/07/23 03:09:06;;;;;;;;;;;15.50;99.90;;;;;;5037677;28;20291;-82
2023/07/23 03:11:32;;;;;;;;;;;15.50;99.90;;;;;;5021839;28;19932;-81
2023/07/23 03:13:57;;;;;;;;;;;15.50;99.90;;;;;;5038819;28;19933;-81
2023/07/23 03:16:23;;;;;;;;;;;15.50;99.90;;;;;;5039599;28;19933;-81
2023/07/23 03:18:49;;;;;;;;;;;15.50;99.90;;;;;;5022492;28;20348;-80
2023/07/23 03:21:15;;;;;;;;;;;15.50;99.90;;;;;;5022118;28;19948;-81
2023/07/23 03:23:40;;;;;;;;;;;15.50;99.90;;;;;;5020968;28;19967;-82
2023/07/23 03:26:07;;;;;;;;;;;15.50;99.90;;;;;;5037435;28;20015;-81
2023/07/23 03:28:33;;;;;;;;;;;15.50;99.90;;;;;;5034000;28;21128;-81
2023/07/23 03:31:00;;;;;;;;;;;15.50;99.90;;;;;;5018465;28;20620;-81
2023/07/23 03:33:27;;;;;;;;;;;15.50;99.90;;;;;;5036805;28;19987;-81
2023/07/23 03:35:52;;;;;;;;;;;15.50;99.90;;;;;;5040547;28;19928;-81
2023/07/23 03:38:18;;;;;;;;;;;15.50;99.90;;;;;;5040554;28;19935;-80
2023/07/23 03:40:43;;;;;;;;;;;15.50;99.90;;;;;;5037833;28;19933;-81
2023/07/23 03:43:09;;;;;;;;;;;15.50;99.90;;;;;;5025712;28;20299;-80
2023/07/23 03:45:34;;;;;;;;;;;15.50;99.90;;;;;;5036229;28;19929;-81
2023/07/23 03:48:00;;;;;;;;;;;15.50;99.90;;;;;;5037290;28;19931;-81
2023/07/23 03:50:26;;;;;;;;;;;15.50;99.90;;;;;;5036823;28;19982;-80
2023/07/23 03:52:52;;;;;;;;;;;15.50;99.90;;;;;;5035266;28;20027;-80
2023/07/23 03:55:19;;;;;;;;;;;15.50;99.90;;;;;;5016325;28;19968;-81
2023/07/23 03:57:45;;;;;;;;;;;15.50;99.90;;;;;;5035360;28;19991;-80
2023/07/23 04:00:11;;;;;;;;;;;15.50;99.90;;;;;;5020700;28;19925;-81
2023/07/23 04:02:37;;;;;;;;;;;15.50;99.90;;;;;;5016533;28;19928;-81
2023/07/23 04:05:02;;;;;;;;;;;15.50;99.90;;;;;;5038198;28;19939;-81
2023/07/23 04:07:28;;;;;;;;;;;15.50;99.90;;;;;;5042055;28;19929;-81
2023/07/23 04:09:54;;;;;;;;;;;15.50;99.90;;;;;;5040031;28;19929;-80
2023/07/23 04:12:25;;;;;;;;;;;15.50;99.90;;;;;;5040733;28;19937;-81
2023/07/23 04:14:51;;;;;;;;;;;15.50;99.90;;;;;;5025121;28;19933;-80
2023/07/23 04:17:16;;;;;;;;;;;15.50;99.90;;;;;;5037792;28;19925;-81
2023/07/23 04:19:42;;;;;;;;;;;15.50;99.90;;;;;;5037153;28;20287;-81
2023/07/23 04:22:08;;;;;;;;;;;15.50;99.90;;;;;;5037692;28;20002;-80
2023/07/23 04:24:33;;;;;;;;;;;15.50;99.90;;;;;;5032561;28;19932;-80
2023/07/23 04:26:59;;;;;;;;;;;15.50;99.90;;;;;;5035753;28;19933;-81
2023/07/23 04:29:24;;;;;;;;;;;15.50;99.90;;;;;;5032396;28;19942;-81
2023/07/23 04:31:50;;;;;;;;;;;15.50;99.90;;;;;;5035452;28;19951;-81
2023/07/23 04:34:16;;;;;;;;;;;15.50;99.90;;;;;;5016799;28;19929;-80
2023/07/23 04:36:41;;;;;;;;;;;15.50;99.90;;;;;;5023727;28;19925;-81
2023/07/23 04:39:07;;;;;;;;;;;15.50;99.90;;;;;;5035850;28;19929;-81
2023/07/23 04:41:33;;;;;;;;;;;15.50;99.90;;;;;;5032816;28;20011;-81
2023/07/23 04:43:58;;;;;;;;;;;15.50;99.90;;;;;;5024429;28;19933;-81
2023/07/23 04:46:24;;;;;;;;;;;15.50;99.90;;;;;;5017603;28;19964;-80
2023/07/23 04:48:49;;;;;;;;;;;15.50;99.90;;;;;;5034954;28;20047;-83
2023/07/23 04:51:16;;;;;;;;;;;15.50;99.90;;;;;;5035465;28;19978;-83
2023/07/23 04:53:41;;;;;;;;;;;15.50;99.90;;;;;;5018223;28;20331;-80
2023/07/23 04:56:07;;;;;;;;;;;15.50;99.90;;;;;;5021560;28;19929;-81
2023/07/23 04:58:32;;;;;;;;;;;15.60;99.90;;;;;;5036694;28;19960;-81
2023/07/23 05:01:00;;;;;;;;;;;15.60;99.90;;;;;;5017183;28;19929;-81
2023/07/23 05:03:26;;;;;;;;;;;15.60;99.90;;;;;;5034651;28;19936;-81
2023/07/23 05:05:52;;;;;;;;;;;15.60;99.90;;;;;;5000542;28;19933;-81
2023/07/23 05:08:18;;;;;;;;;;;15.60;99.90;;;;;;5035519;28;20016;-80
2023/07/23 05:10:44;;;;;;;;;;;15.70;99.90;;;;;;5000261;28;19928;-80
2023/07/23 05:13:10;;;;;;;;;;;15.70;99.90;;;;;;5032939;28;19929;-81
2023/07/23 05:15:36;;;;;;;;;;;15.70;99.90;;;;;;5015524;28;20023;-81
2023/07/23 05:18:02;;;;;;;;;;;15.70;99.90;;;;;;5017209;28;19929;-80
2023/07/23 05:20:27;;;;;;;;;;;15.70;99.90;;;;;;5038457;28;19939;-80
2023/07/23 05:22:54;;;;;;;;;;;15.70;99.90;;;;;;5034527;28;19929;-80
2023/07/23 05:25:20;;;;;;;;;;;15.70;99.90;;;;;;5017263;28;19970;-81
2023/07/23 05:27:46;;;;;;;;;;;15.70;99.90;;;;;;5034872;28;20024;-81
2023/07/23 05:30:13;;;;;;;;;;;15.70;99.90;;;;;;5032372;28;19976;-80
2023/07/23 05:32:39;;;;;;;;;;;15.70;99.90;;;;;;5030980;28;19932;-81
2023/07/23 05:35:05;;;;;;;;;;;15.60;99.90;;;;;;5030692;28;19932;-81
2023/07/23 05:37:31;;;;;;;;;;;15.60;99.90;;;;;;5016931;28;19929;-81
2023/07/23 05:39:56;;;;;;;;;;;15.60;99.90;;;;;;5033537;28;20055;-80
2023/07/23 05:42:22;;;;;;;;;;;15.60;99.90;;;;;;5034646;28;20379;-81
2023/07/23 05:44:47;;;;;;;;;;;15.60;99.90;;;;;;5033480;28;19933;-80
2023/07/23 05:47:13;;;;;;;;;;;15.60;99.90;;;;;;5017736;28;19933;-80
2023/07/23 05:49:39;;;;;;;;;;;15.60;99.90;;;;;;5034496;28;19929;-80
2023/07/23 05:52:05;;;;;;;;;;;15.60;99.90;;;;;;5037756;28;20113;-79
2023/07/23 05:54:30;;;;;;;;;;;15.60;99.90;;;;;;5017289;28;20069;-78
2023/07/23 05:56:56;;;;;;;;;;;15.60;99.90;;;;;;5024909;28;20178;-77
2023/07/23 05:59:21;;;;;;;;;;;15.60;99.90;;;;;;5034149;28;19990;-82
2023/07/23 06:01:47;;;;;;;;;;;15.60;99.90;;;;;;5034656;28;19933;-80
2023/07/23 06:04:13;;;;;;;;;;;15.60;99.90;;;;;;5034745;28;19955;-80
2023/07/23 06:06:38;;;;;;;;;;;15.60;99.90;;;;;;5035842;28;19933;-80
2023/07/23 06:09:04;;;;;;;;;;;15.60;99.90;;;;;;5036459;28;19928;-86
2023/07/23 06:11:30;;;;;;;;;;;15.60;99.90;;;;;;5040379;28;20331;-82
2023/07/23 06:13:56;;;;;;;;;;;15.60;99.90;;;;;;5038030;28;19928;-85
2023/07/23 06:16:21;;;;;;;;;;;15.60;99.90;;;;;;5038309;28;19936;-83
2023/07/23 06:18:47;;;;;;;;;;;15.60;99.90;;;;;;5020870;28;19991;-82
2023/07/23 06:21:13;;;;;;;;;;;15.60;99.90;;;;;;5037578;28;19928;-81
2023/07/23 06:23:38;;;;;;;;;;;15.60;99.90;;;;;;5037087;28;19929;-81
2023/07/23 06:26:04;;;;;;;;;;;15.60;99.90;;;;;;5036127;28;19929;-82
2023/07/23 06:28:30;;;;;;;;;;;15.60;99.90;;;;;;5037691;28;20463;-83
2023/07/23 06:30:56;;;;;;;;;;;15.70;99.90;;;;;;5020814;28;19928;-78
2023/07/23 06:33:21;;;;;;;;;;;15.70;99.90;;;;;;5033529;28;20505;-76
2023/07/23 06:35:47;;;;;;;;;;;15.70;99.90;;;;;;5019071;28;19932;-77
2023/07/23 06:38:13;;;;;;;;;;;15.80;99.90;;;;;;5022527;28;19970;-78
2023/07/23 06:40:46;;;;;;;;;;;15.80;99.90;;;;;;5034221;28;20012;-81
2023/07/23 06:43:12;;;;;;;;;;;15.90;99.90;;;;;;5034290;28;19937;-81
2023/07/23 06:45:38;;;;;;;;;;;15.90;99.90;;;;;;5033632;28;19933;-83
2023/07/23 06:48:03;;;;;;;;;;;15.90;99.90;;;;;;5022015;28;20012;-82
2023/07/23 06:50:31;;;;;;;;;;;15.90;99.90;;;;;;5033165;28;20394;-81
2023/07/23 06:52:56;;;;;;;;;;;16.00;99.90;;;;;;5017071;28;19998;-78
2023/07/23 06:55:22;;;;;;;;;;;16.00;99.90;;;;;;5034535;28;19936;-80
2023/07/23 06:57:48;;;;;;;;;;;16.00;99.90;;;;;;5017075;28;20427;-83
2023/07/23 07:00:14;;;;;;;;;;;16.00;99.90;;;;;;5034687;28;19925;-81
2023/07/23 07:02:41;;;;;;;;;;;16.10;99.90;;;;;;5017684;28;19929;-78
2023/07/23 07:05:06;;;;;;;;;;;16.10;99.90;;;;;;5034953;28;19929;-77
2023/07/23 07:07:32;;;;;;;;;;;16.20;99.90;;;;;;5050580;28;19929;-80
2023/07/23 07:09:57;;;;;;;;;;;16.20;99.90;;;;;;5018789;28;19940;-80
2023/07/23 07:12:24;;;;;;;;;;;16.20;99.90;;;;;;5035524;28;19975;-81
2023/07/23 07:14:49;;;;;;;;;;;16.20;99.90;;;;;;5033968;28;19936;-81
2023/07/23 07:17:15;;;;;;;;;;;16.30;99.90;;;;;;5017910;28;19929;-82
2023/07/23 07:19:41;;;;;;;;;;;16.30;99.90;;;;;;5033257;28;20054;-81
2023/07/23 07:22:06;;;;;;;;;;;16.30;99.90;;;;;;5018674;28;20024;-78
2023/07/23 07:24:32;;;;;;;;;;;16.30;99.90;;;;;;5018159;28;19940;-77
2023/07/23 07:26:58;;;;;;;;;;;16.30;99.90;;;;;;5022357;28;19944;-77
2023/07/23 07:29:23;;;;;;;;;;;16.30;99.90;;;;;;5038981;28;19964;-78
2023/07/23 07:31:49;;;;;;;;;;;16.30;99.90;;;;;;5035933;28;19981;-78
2023/07/23 07:34:14;;;;;;;;;;;16.30;99.90;;;;;;5033507;28;19967;-78
2023/07/23 07:36:40;;;;;;;;;;;16.30;99.90;;;;;;5031136;28;19982;-78
2023/07/23 07:39:06;;;;;;;;;;;16.30;99.90;;;;;;5034883;28;19921;-78
2023/07/23 07:41:31;;;;;;;;;;;16.20;99.90;;;;;;5032139;28;20011;-78
2023/07/23 07:43:57;;;;;;;;;;;16.30;99.90;;;;;;5032983;28;20350;-78
2023/07/23 07:46:25;;;;;;;;;;;16.30;99.90;;;;;;5032573;28;19933;-76
2023/07/23 07:48:51;;;;;;;;;;;16.40;99.90;;;;;;5019169;28;19972;-77
2023/07/23 07:51:16;;;;;;;;;;;16.40;99.90;;;;;;5032917;28;20020;-77
2023/07/23 07:53:42;;;;;;;;;;;16.50;99.90;;;;;;5034737;28;19976;-76
2023/07/23 07:56:17;;;;;;;;;;;16.50;99.90;;;;;;5032982;28;20011;-77
2023/07/23 07:58:44;;;;;;;;;;;16.50;99.90;;;;;;5033980;28;19968;-78
2023/07/23 08:01:09;;;;;;;;;;;16.50;99.90;;;;;;5017984;28;19925;-78
2023/07/23 08:03:35;;;;;;;;;;;16.50;99.90;;;;;;5031543;28;19951;-78
2023/07/23 08:06:01;;;;;;;;;;;16.50;99.90;;;;;;5048229;28;20015;-78
2023/07/23 08:08:30;;;;;;;;;;;16.60;99.90;;;;;;5034106;28;19933;-79
2023/07/23 08:10:57;;;;;;;;;;;16.60;99.90;;;;;;5016657;28;20016;-79
2023/07/23 08:13:24;;;;;;;;;;;16.60;99.90;;;;;;5034015;28;19977;-80
2023/07/23 08:15:50;;;;;;;;;;;16.60;99.90;;;;;;5030711;28;19972;-82
2023/07/23 08:18:16;;;;;;;;;;;16.70;99.90;;;;;;5032673;28;20292;-80
2023/07/23 08:20:42;;;;;;;;;;;16.60;99.90;;;;;;5018352;28;20042;-81
2023/07/23 08:23:08;;;;;;;;;;;16.60;99.90;;;;;;5031967;28;19924;-81
2023/07/23 08:25:34;;;;;;;;;;;16.60;99.90;;;;;;5030536;28;19935;-81
2023/07/23 08:28:00;;;;;;;;;;;16.50;99.90;;;;;;5032597;28;19991;-80
2023/07/23 08:30:30;;;;;;;;;;;16.50;99.90;;;;;;5033471;28;19951;-80
2023/07/23 08:32:56;;;;;;;;;;;16.50;99.90;;;;;;5033147;28;19929;-81
2023/07/23 08:35:23;;;;;;;;;;;16.50;99.90;;;;;;5017885;28;19932;-81
2023/07/23 08:37:49;;;;;;;;;;;16.50;99.90;;;;;;5015914;28;20535;-80
2023/07/23 08:40:14;;;;;;;;;;;16.60;99.90;;;;;;5019194;28;19924;-78
2023/07/23 08:42:55;;;;;;;;;;;16.60;99.90;;;;;;5034956;28;19929;-80
2023/07/23 08:45:27;;;;;;;;;;;16.60;99.90;;;;;;5032291;28;19925;-81
2023/07/23 08:48:04;;;;;;;;;;;16.60;99.90;;;;;;5037523;28;19936;-80
2023/07/23 08:50:30;;;;;;;;;;;16.60;99.90;;;;;;5052172;28;19932;-80
2023/07/23 08:52:56;;;;;;;;;;;16.60;99.90;;;;;;5036275;28;19979;-82
2023/07/23 08:55:22;;;;;;;;;;;16.60;99.90;;;;;;5035866;28;19995;-80
2023/07/23 08:57:48;;;;;;;;;;;16.70;99.90;;;;;;5034493;28;20512;-82
2023/07/23 09:00:15;;;;;;;;;;;16.70;99.90;;;;;;5035598;28;19929;-80
2023/07/23 09:02:41;;;;;;;;;;;16.70;99.90;;;;;;5033344;28;19964;-80
2023/07/23 09:05:07;;;;;;;;;;;16.80;99.90;;;;;;5034930;28;20051;-81
2023/07/23 09:07:34;;;;;;;;;;;16.80;99.90;;;;;;5034869;28;19933;-82
2023/07/23 09:09:59;;;;;;;;;;;16.80;99.90;;;;;;5000828;28;19982;-82
2023/07/23 09:12:27;;;;;;;;;;;16.80;99.90;;;;;;5002599;28;20379;-82
2023/07/23 09:14:52;;;;;;;;;;;16.90;99.90;;;;;;5032979;28;19925;-83
2023/07/23 09:17:18;;;;;;;;;;;16.90;99.90;;;;;;5017871;28;19940;-81
2023/07/23 09:19:44;;;;;;;;;;;17.00;99.90;;;;;;5034519;28;19925;-81
2023/07/23 09:22:10;;;;;;;;;;;17.00;99.90;;;;;;5018046;28;19932;-80
2023/07/23 09:24:36;;;;;;;;;;;17.20;99.90;;;;;;5033874;28;20020;-81
2023/07/23 09:27:02;;;;;;;;;;;17.20;99.90;;;;;;5034490;28;20269;-80
2023/07/23 09:29:35;;;;;;;;;;;17.30;99.90;;;;;;5035421;28;19936;-81
2023/07/23 09:32:01;;;;;;;;;;;17.30;99.90;;;;;;5034618;28;20016;-81
2023/07/23 09:34:26;;;;;;;;;;;17.30;99.90;;;;;;5033092;28;20532;-81
2023/07/23 09:36:53;;;;;;;;;;;17.40;99.90;;;;;;5033349;28;19925;-81
2023/07/23 09:39:19;;;;;;;;;;;17.40;99.90;;;;;;5034390;28;20440;-80
2023/07/23 09:41:45;;;;;;;;;;;17.30;99.90;;;;;;5033227;28;19940;-79
2023/07/23 09:44:12;;;;;;;;;;;17.30;99.90;;;;;;5033749;28;19932;-80
2023/07/23 09:46:38;;;;;;;;;;;17.20;99.90;;;;;;5016195;28;20277;-81
2023/07/23 09:49:04;;;;;;;;;;;17.20;99.90;;;;;;5032360;28;19943;-80
2023/07/23 09:51:33;;;;;;;;;;;17.20;99.90;;;;;;5021105;28;20000;-80
2023/07/23 09:53:59;;;;;;;;;;;17.20;99.90;;;;;;5034866;28;19927;-80
2023/07/23 09:56:25;;;;;;;;;;;17.10;99.90;;;;;;5051885;28;20039;-81
2023/07/23 09:58:51;;;;;;;;;;;17.10;99.90;;;;;;5015503;28;19971;-81
2023/07/23 10:01:18;;;;;;;;;;;17.10;99.90;;;;;;5020411;28;20022;-80
2023/07/23 10:03:44;;;;;;;;;;;17.10;99.90;;;;;;5021663;28;20171;-80
2023/07/23 10:06:12;;;;;;;;;;;17.10;99.90;;;;;;5033814;28;20066;-80
2023/07/23 10:08:39;;;;;;;;;;;17.10;99.90;;;;;;5016520;28;19933;-81
2023/07/23 10:11:05;;;;;;;;;;;17.10;99.90;;;;;;5050588;28;20406;-80
2023/07/23 10:13:31;;;;;;;;;;;17.10;99.90;;;;;;5035037;28;19925;-81
2023/07/23 10:15:58;;;;;;;;;;;17.10;99.90;;;;;;5034459;28;19925;-80
2023/07/23 10:18:26;;;;;;;;;;;17.20;99.90;;;;;;5017482;28;19925;-80
2023/07/23 10:20:52;;;;;;;;;;;17.20;99.90;;;;;;5034011;28;19932;-80
2023/07/23 10:23:18;;;;;;;;;;;17.20;99.90;;;;;;5016466;28;20490;-79
2023/07/23 10:25:43;;;;;;;;;;;17.20;99.90;;;;;;5036170;28;19932;-80
2023/07/23 10:28:09;;;;;;;;;;;17.20;99.90;;;;;;5024507;28;19931;-80
2023/07/23 10:30:38;;;;;;;;;;;17.20;99.90;;;;;;5039445;28;19935;-77
2023/07/23 10:33:10;;;;;;;;;;;17.30;99.90;;;;;;5034357;28;19924;-76
2023/07/23 10:35:54;;;;;;;;;;;17.30;99.90;;;;;;5035608;28;19936;-80
2023/07/23 10:38:23;;;;;;;;;;;17.40;99.90;;;;;;5034432;28;19925;-82
2023/07/23 10:40:49;;;;;;;;;;;17.40;99.90;;;;;;5035846;28;19979;-76
2023/07/23 10:43:14;;;;;;;;;;;17.40;99.90;;;;;;5017990;28;19932;-78
2023/07/23 10:45:59;;;;;;;;;;;17.50;99.90;;;;;;5038544;28;19924;-79
2023/07/23 10:48:36;;;;;;;;;;;17.50;99.90;;;;;;5018171;28;19925;-79
2023/07/23 10:51:02;;;;;;;;;;;17.50;99.90;;;;;;5035113;28;19928;-79
2023/07/23 10:53:31;;;;;;;;;;;17.50;99.90;;;;;;5017595;28;20062;-78
2023/07/23 10:56:00;;;;;;;;;;;17.50;99.90;;;;;;5032216;28;19962;-78
2023/07/23 10:58:27;;;;;;;;;;;17.50;99.90;;;;;;5036367;28;20818;-81
2023/07/23 11:00:54;;;;;;;;;;;17.50;99.90;;;;;;5035065;28;19940;-80
2023/07/23 11:03:20;;;;;;;;;;;17.50;99.90;;;;;;5052375;28;19929;-75
2023/07/23 11:05:46;;;;;;;;;;;17.50;99.90;;;;;;5033364;28;19933;-76
2023/07/23 11:08:16;;;;;;;;;;;17.50;99.90;;;;;;5033680;28;19925;-76
2023/07/23 11:10:49;;;;;;;;;;;17.50;99.90;;;;;;5039418;28;19960;-78
2023/07/23 11:13:17;;;;;;;;;;;17.50;99.90;;;;;;5036976;28;19925;-78
2023/07/23 11:15:43;;;;;;;;;;;17.50;99.90;;;;;;5022610;28;19971;-76
2023/07/23 11:18:09;;;;;;;;;;;17.60;99.90;;;;;;5037286;28;20313;-75
2023/07/23 11:20:35;;;;;;;;;;;17.60;99.90;;;;;;5039204;28;20044;-80
2023/07/23 11:23:02;;;;;;;;;;;17.60;99.90;;;;;;5005333;28;19929;-80
2023/07/23 11:25:28;;;;;;;;;;;17.60;99.90;;;;;;5034865;28;19932;-81
2023/07/23 11:27:53;;;;;;;;;;;17.70;99.90;;;;;;5033450;28;20011;-75
2023/07/23 11:30:19;;;;;;;;;;;17.70;99.90;;;;;;5035589;28;19929;-82
2023/07/23 11:32:48;;;;;;;;;;;17.80;99.90;;;;;;5034169;28;19925;-81
2023/07/23 11:35:14;;;;;;;;;;;17.80;99.90;;;;;;5018579;28;19928;-84
2023/07/23 11:37:49;;;;;;;;;;;17.90;99.90;;;;;;5018164;28;19933;-79
2023/07/23 11:40:21;;;;;;;;;;;17.90;99.90;;;;;;5018648;28;20019;-81
2023/07/23 11:42:47;;;;;;;;;;;17.90;99.90;;;;;;5032946;28;19945;-77
2023/07/23 11:45:13;;;;;;;;;;;18.00;99.90;;;;;;5033274;28;19986;-81
2023/07/23 11:47:46;;;;;;;;;;;18.10;99.90;;;;;;5019863;28;19969;-81
2023/07/23 11:50:15;;;;;;;;;;;18.30;99.90;;;;;;5050471;28;19932;-80
2023/07/23 11:52:41;;;;;;;;;;;18.50;99.90;;;;;;5036017;28;19973;-80
2023/07/23 11:55:17;;;;;;;;;;;18.90;99.90;;;;;;5036582;28;19936;-77
2023/07/23 11:57:43;;;;;;;;;;;19.30;99.90;;;;;;5037844;28;19932;-76
2023/07/23 12:00:09;;;;;;;;;;;19.50;99.90;;;;;;5036349;28;19933;-75
2023/07/23 12:02:34;;;;;;;;;;;19.50;99.90;;;;;;5038978;28;20390;-76
2023/07/23 12:05:00;;;;;;;;;;;19.40;99.90;;;;;;5017187;28;21139;-76
2023/07/23 12:07:28;;;;;;;;;;;19.40;99.90;;;;;;5034050;28;19978;-76
2023/07/23 12:09:54;;;;;;;;;;;19.40;99.90;;;;;;5034113;28;19963;-76
2023/07/23 12:12:21;;;;;;;;;;;19.40;99.90;;;;;;5034722;28;20043;-76
2023/07/23 12:14:59;;;;;;;;;;;19.40;99.90;;;;;;5034147;28;19925;-76
2023/07/23 12:17:26;;;;;;;;;;;19.40;99.90;;;;;;5035716;28;20362;-75
2023/07/23 12:19:51;;;;;;;;;;;19.30;99.90;;;;;;5033751;28;19943;-76
2023/07/23 12:22:17;;;;;;;;;;;19.10;99.90;;;;;;5019278;28;19932;-75
2023/07/23 12:24:42;;;;;;;;;;;19.00;99.90;;;;;;5018170;28;19975;-76
2023/07/23 12:27:08;;;;;;;;;;;18.90;99.90;;;;;;5022883;28;20006;-75
2023/07/23 12:29:39;;;;;;;;;;;19.00;99.90;;;;;;5032271;28;19978;-76
2023/07/23 12:32:09;;;;;;;;;;;19.30;99.90;;;;;;5034357;28;19933;-76
2023/07/23 12:34:35;;;;;;;;;;;19.40;99.90;;;;;;5032592;28;19929;-76
2023/07/23 12:37:01;;;;;;;;;;;19.30;99.90;;;;;;5017631;28;19928;-75
2023/07/23 12:39:27;;;;;;;;;;;19.40;99.90;;;;;;5032892;28;19932;-74
2023/07/23 12:41:52;;;;;;;;;;;19.40;99.90;;;;;;5032425;28;20438;-73
2023/07/23 12:44:18;;;;;;;;;;;19.50;99.90;;;;;;5033526;28;20501;-74
2023/07/23 12:46:43;;;;;;;;;;;19.60;99.90;;;;;;5016850;28;19930;-74
2023/07/23 12:49:09;;;;;;;;;;;19.50;99.90;;;;;;5014284;28;20012;-74
2023/07/23 12:51:34;;;;;;;;;;;19.60;99.90;;;;;;5034418;28;20477;-73
2023/07/23 12:54:00;;;;;;;;;;;19.50;99.90;;;;;;5034144;28;20267;-73
2023/07/23 12:56:26;;;;;;;;;;;19.50;99.90;;;;;;5031742;28;19951;-73
2023/07/23 12:58:51;;;;;;;;;;;19.60;99.90;;;;;;5033113;28;20327;-73
2023/07/23 13:01:17;;;;;;;;;;;19.70;99.90;;;;;;5016367;28;20673;-73
2023/07/23 13:03:43;;;;;;;;;;;19.80;99.90;;;;;;5032352;28;19929;-74
2023/07/23 13:06:08;;;;;;;;;;;19.90;99.90;;;;;;5032684;28;19936;-73
2023/07/23 13:08:34;;;;;;;;;;;19.90;99.90;;;;;;5032503;28;19939;-74
2023/07/23 13:11:00;;;;;;;;;;;20.00;99.90;;;;;;5028779;28;19928;-74
2023/07/23 13:13:26;;;;;;;;;;;20.70;99.90;;;;;;5032753;28;20013;-81
2023/07/23 13:15:51;;;;;;;;;;;20.00;99.90;;;;;;5033141;28;20553;-79
2023/07/23 13:18:18;;;;;;;;;;;20.10;99.90;;;;;;5013911;28;20274;-79
2023/07/23 13:20:44;;;;;;;;;;;20.00;99.90;;;;;;5032080;28;20372;-77
2023/07/23 13:23:10;;;;;;;;;;;20.00;99.90;;;;;;5034989;28;19929;-78
2023/07/23 13:25:35;;;;;;;;;;;20.10;99.90;;;;;;5033738;28;19933;-77
2023/07/23 13:28:01;;;;;;;;;;;20.10;99.90;;;;;;5036707;28;20288;-76
2023/07/23 13:30:26;;;;;;;;;;;20.10;99.90;;;;;;5014416;28;19940;-78
2023/07/23 13:32:52;;;;;;;;;;;20.10;99.90;;;;;;5034217;28;20385;-78
2023/07/23 13:35:18;;;;;;;;;;;20.10;99.60;;;;;;5015860;28;20697;-78
2023/07/23 13:37:43;;;;;;;;;;;20.20;99.20;;;;;;5032082;28;19928;-78
2023/07/23 13:40:09;;;;;;;;;;;20.20;98.80;;;;;;5031244;28;19954;-78
2023/07/23 13:42:35;;;;;;;;;;;20.20;98.60;;;;;;5017306;28;19971;-79
2023/07/23 13:45:01;;;;;;;;;;;20.20;98.30;;;;;;5013070;28;20020;-77
2023/07/23 13:47:26;;;;;;;;;;;20.20;98.80;;;;;;5030149;28;19943;-78
2023/07/23 13:49:52;;;;;;;;;;;20.20;98.80;;;;;;5032631;28;19936;-79
2023/07/23 13:52:23;;;;;;;;;;;20.10;98.80;;;;;;5016119;28;19929;-78
2023/07/23 13:54:51;;;;;;;;;;;20.00;98.60;;;;;;5030313;28;20034;-78
2023/07/23 13:57:17;;;;;;;;;;;20.00;99.20;;;;;;5032864;28;19967;-78
2023/07/23 13:59:43;;;;;;;;;;;19.90;98.70;;;;;;5031834;28;20015;-78
2023/07/23 14:02:09;;;;;;;;;;;19.90;98.60;;;;;;5000157;28;20384;-78
2023/07/23 14:04:34;;;;;;;;;;;19.90;98.90;;;;;;5035722;28;19933;-78
2023/07/23 14:07:00;;;;;;;;;;;19.80;99.20;;;;;;5036986;28;19951;-77
2023/07/23 14:09:25;;;;;;;;;;;19.80;99.30;;;;;;5019693;28;20240;-77
2023/07/23 14:11:51;;;;;;;;;;;19.80;99.30;;;;;;5035480;28;19989;-77